Olim IV — CFK9604 — position and weather

sailwx.info

Track history (hours):
 
Tides and Currents Weather Stations Pressure Air Temp Water Temp Dewpoint Dewpoint Depression Visibility Wind Speed Wind Dir Waves Ship Positions

Olim IV

Last reported at 2016-May-29 19:16 UTC. Time now 2016-Aug-30 17:11 UTC.
Position N 52°12' W 128°08'.
Warning: this ship's position is months out of date.

Length 14 m.

Type: Pleasure craft. MMSI: 316017604.

Date/timePositionNaut miles runAvg speedWind from/ knotsBaromVisibWave heightAir tempDewpointWater temp
2016-May-29 19:16N 52°12' W 128°08'3 3.6
2016-May-29 18:32N 52°10' W 128°08'2 2.2
2016-May-29 17:33N 52°09' W 128°05'0 0.0
2016-May-29 16:24N 52°09' W 128°05'0 0.0
2016-May-29 15:33N 52°09' W 128°05'0 0.0
2016-May-29 14:33N 52°09' W 128°05'0 0.0
2016-May-29 13:33N 52°09' W 128°05'0 0.0
2016-May-29 12:33N 52°09' W 128°05'0 0.0
2016-May-29 11:33N 52°09' W 128°05'0 0.0
2016-May-29 10:33N 52°09' W 128°05'0 0.0
2016-May-29 09:33N 52°09' W 128°05'0 0.0
2016-May-29 08:33N 52°09' W 128°05'0 0.0
2016-May-29 07:33N 52°09' W 128°05'0 0.0
2016-May-29 06:33N 52°09' W 128°05'0 0.0
2016-May-29 05:33N 52°09' W 128°05'0 0.0
2016-May-29 04:33N 52°09' W 128°05'0 0.0
2016-May-29 03:33N 52°09' W 128°05'0 0.0
2016-May-29 02:33N 52°09' W 128°05'0 0.0
2016-May-29 01:33N 52°09' W 128°05'0 0.0
2016-May-29 00:33N 52°09' W 128°05'0 0.0
2016-May-28 23:33N 52°09' W 128°05'0 0.0
2016-May-28 22:33N 52°09' W 128°05'2 1.6
2016-May-28 21:33N 52°09' W 128°08'72 2.4
2016-May-27 15:27N 50°58' W 127°44'7 8.2
2016-May-27 14:33N 50°53' W 127°37'11 0.7
2016-May-26 23:26N 50°43' W 127°29'88 2.7
2016-May-25 15:26N 50°10' W 125°22'7 0.6
2016-May-25 03:08N 50°05' W 125°13'0 0.0
2016-May-25 02:26N 50°05' W 125°13'0 0.0
2016-May-25 00:29N 50°05' W 125°13'1 1.5
2016-May-24 23:33N 50°03' W 125°14'8 6.3
2016-May-24 22:20N 49°57' W 125°08'7 8.7
2016-May-24 21:33N 49°52' W 125°01'8 8.4
2016-May-24 20:33N 49°45' W 124°53'62 2.8
2016-May-23 22:33N 49°08' W 123°37'9 9.0
2016-May-23 21:32N 49°01' W 123°27'8 8.6
2016-May-23 20:33N 48°56' W 123°17'  
Track history (hours):
 
Tides and Currents Weather Stations Pressure Air Temp Water Temp Dewpoint Dewpoint Depression Visibility Wind Speed Wind Dir Waves Ship Positions

Olim IV

Last reported at 2016-May-29 19:16 UTC. Time now 2016-Aug-30 17:11 UTC.
Position N 52°12' W 128°08'.
Warning: this ship's position is months out of date.

Length 14 m.

Type: Pleasure craft. MMSI: 316017604.

Date/timePositionNaut miles runAvg speedWind from/ knotsBaromVisibWave heightAir tempDewpointWater temp
2016-May-29 19:16N 52°12' W 128°08'3 3.6
2016-May-29 18:32N 52°10' W 128°08'2 2.2
2016-May-29 17:33N 52°09' W 128°05'0 0.0
2016-May-29 16:24N 52°09' W 128°05'0 0.0
2016-May-29 15:33N 52°09' W 128°05'0 0.0
2016-May-29 14:33N 52°09' W 128°05'0 0.0
2016-May-29 13:33N 52°09' W 128°05'0 0.0
2016-May-29 12:33N 52°09' W 128°05'0 0.0
2016-May-29 11:33N 52°09' W 128°05'0 0.0
2016-May-29 10:33N 52°09' W 128°05'0 0.0
2016-May-29 09:33N 52°09' W 128°05'0 0.0
2016-May-29 08:33N 52°09' W 128°05'0 0.0
2016-May-29 07:33N 52°09' W 128°05'0 0.0
2016-May-29 06:33N 52°09' W 128°05'0 0.0
2016-May-29 05:33N 52°09' W 128°05'0 0.0
2016-May-29 04:33N 52°09' W 128°05'0 0.0
2016-May-29 03:33N 52°09' W 128°05'0 0.0
2016-May-29 02:33N 52°09' W 128°05'0 0.0
2016-May-29 01:33N 52°09' W 128°05'0 0.0
2016-May-29 00:33N 52°09' W 128°05'0 0.0
2016-May-28 23:33N 52°09' W 128°05'0 0.0
2016-May-28 22:33N 52°09' W 128°05'2 1.6
2016-May-28 21:33N 52°09' W 128°08'72 2.4
2016-May-27 15:27N 50°58' W 127°44'7 8.2
2016-May-27 14:33N 50°53' W 127°37'11 0.7
2016-May-26 23:26N 50°43' W 127°29'88 2.7
2016-May-25 15:26N 50°10' W 125°22'7 0.6
2016-May-25 03:08N 50°05' W 125°13'0 0.0
2016-May-25 02:26N 50°05' W 125°13'0 0.0
2016-May-25 00:29N 50°05' W 125°13'1 1.5
2016-May-24 23:33N 50°03' W 125°14'8 6.3
2016-May-24 22:20N 49°57' W 125°08'7 8.7
2016-May-24 21:33N 49°52' W 125°01'8 8.4
2016-May-24 20:33N 49°45' W 124°53'62 2.8
2016-May-23 22:33N 49°08' W 123°37'9 9.0
2016-May-23 21:32N 49°01' W 123°27'8 8.6
2016-May-23 20:33N 48°56' W 123°17'  

Dump ship's entire track history